sensor_id;sensor_type;location;lat;lon;timestamp;P1;durP1;ratioP1;P2;durP2;ratioP2
72437;SDS011;60444;43.534;-5.674;2023-01-30T00:01:25;17.42;;;9.32;;
72437;SDS011;60444;43.534;-5.674;2023-01-30T00:03:56;17.85;;;9.18;;
72437;SDS011;60444;43.534;-5.674;2023-01-30T00:06:22;18.03;;;9.43;;
72437;SDS011;60444;43.534;-5.674;2023-01-30T00:08:48;17.02;;;9.18;;
72437;SDS011;60444;43.534;-5.674;2023-01-30T00:11:14;19.43;;;9.23;;
72437;SDS011;60444;43.534;-5.674;2023-01-30T00:13:41;17.67;;;9.33;;
72437;SDS011;60444;43.534;-5.674;2023-01-30T00:16:08;22.83;;;11.13;;
72437;SDS011;60444;43.534;-5.674;2023-01-30T00:18:34;22.15;;;11.43;;
72437;SDS011;60444;43.534;-5.674;2023-01-30T00:21:01;25.58;;;11.63;;
72437;SDS011;60444;43.534;-5.674;2023-01-30T00:23:30;19.50;;;9.68;;
72437;SDS011;60444;43.534;-5.674;2023-01-30T00:25:56;25.37;;;12.83;;
72437;SDS011;60444;43.534;-5.674;2023-01-30T00:28:22;26.52;;;12.18;;
72437;SDS011;60444;43.534;-5.674;2023-01-30T00:30:48;19.88;;;10.35;;
72437;SDS011;60444;43.534;-5.674;2023-01-30T00:33:15;20.00;;;9.23;;
72437;SDS011;60444;43.534;-5.674;2023-01-30T00:35:44;16.47;;;8.57;;
72437;SDS011;60444;43.534;-5.674;2023-01-30T00:38:11;15.05;;;7.15;;
72437;SDS011;60444;43.534;-5.674;2023-01-30T00:40:37;12.80;;;6.40;;
72437;SDS011;60444;43.534;-5.674;2023-01-30T00:43:03;10.03;;;4.93;;
72437;SDS011;60444;43.534;-5.674;2023-01-30T00:45:47;12.88;;;5.20;;
72437;SDS011;60444;43.534;-5.674;2023-01-30T00:48:32;10.25;;;4.95;;
72437;SDS011;60444;43.534;-5.674;2023-01-30T00:50:58;9.73;;;3.83;;
72437;SDS011;60444;43.534;-5.674;2023-01-30T00:53:24;12.45;;;4.72;;
72437;SDS011;60444;43.534;-5.674;2023-01-30T00:55:53;9.57;;;3.65;;
72437;SDS011;60444;43.534;-5.674;2023-01-30T00:58:19;11.13;;;4.63;;
72437;SDS011;60444;43.534;-5.674;2023-01-30T01:00:45;12.40;;;4.65;;
72437;SDS011;60444;43.534;-5.674;2023-01-30T01:03:11;12.38;;;5.38;;
72437;SDS011;60444;43.534;-5.674;2023-01-30T01:05:37;11.80;;;5.83;;
72437;SDS011;60444;43.534;-5.674;2023-01-30T01:08:02;10.83;;;5.63;;
72437;SDS011;60444;43.534;-5.674;2023-01-30T01:10:28;14.45;;;6.03;;
72437;SDS011;60444;43.534;-5.674;2023-01-30T01:12:53;10.53;;;5.63;;
72437;SDS011;60444;43.534;-5.674;2023-01-30T01:15:20;8.18;;;4.78;;
72437;SDS011;60444;43.534;-5.674;2023-01-30T01:17:46;8.88;;;4.55;;
72437;SDS011;60444;43.534;-5.674;2023-01-30T01:20:12;10.57;;;4.70;;
72437;SDS011;60444;43.534;-5.674;2023-01-30T01:22:38;10.70;;;4.10;;
72437;SDS011;60444;43.534;-5.674;2023-01-30T01:25:04;7.70;;;3.58;;
72437;SDS011;60444;43.534;-5.674;2023-01-30T01:27:30;8.20;;;3.33;;
72437;SDS011;60444;43.534;-5.674;2023-01-30T01:29:55;10.82;;;3.70;;
72437;SDS011;60444;43.534;-5.674;2023-01-30T01:32:21;8.77;;;3.60;;
72437;SDS011;60444;43.534;-5.674;2023-01-30T01:34:47;9.98;;;4.35;;
72437;SDS011;60444;43.534;-5.674;2023-01-30T01:37:13;9.98;;;4.40;;
72437;SDS011;60444;43.534;-5.674;2023-01-30T01:39:39;10.30;;;5.10;;
72437;SDS011;60444;43.534;-5.674;2023-01-30T01:42:23;9.00;;;3.70;;
72437;SDS011;60444;43.534;-5.674;2023-01-30T01:45:10;9.57;;;3.20;;
72437;SDS011;60444;43.534;-5.674;2023-01-30T01:50:30;8.68;;;4.03;;
72437;SDS011;60444;43.534;-5.674;2023-01-30T01:53:12;11.60;;;4.72;;
72437;SDS011;60444;43.534;-5.674;2023-01-30T01:55:42;10.45;;;4.68;;
72437;SDS011;60444;43.534;-5.674;2023-01-30T01:58:14;10.07;;;4.70;;
72437;SDS011;60444;43.534;-5.674;2023-01-30T02:00:44;8.85;;;3.45;;
72437;SDS011;60444;43.534;-5.674;2023-01-30T02:03:14;10.10;;;3.35;;
72437;SDS011;60444;43.534;-5.674;2023-01-30T02:05:42;10.98;;;4.53;;
72437;SDS011;60444;43.534;-5.674;2023-01-30T02:08:34;9.55;;;3.85;;
72437;SDS011;60444;43.534;-5.674;2023-01-30T02:11:20;9.13;;;4.33;;
72437;SDS011;60444;43.534;-5.674;2023-01-30T02:13:53;9.32;;;4.55;;
72437;SDS011;60444;43.534;-5.674;2023-01-30T02:16:20;9.13;;;4.03;;
72437;SDS011;60444;43.534;-5.674;2023-01-30T02:18:45;7.77;;;3.73;;
72437;SDS011;60444;43.534;-5.674;2023-01-30T02:26:53;11.45;;;4.38;;
72437;SDS011;60444;43.534;-5.674;2023-01-30T02:35:48;11.15;;;5.25;;
72437;SDS011;60444;43.534;-5.674;2023-01-30T02:37:53;13.50;;;6.80;;
72437;SDS011;60444;43.534;-5.674;2023-01-30T02:46:23;10.48;;;4.70;;
72437;SDS011;60444;43.534;-5.674;2023-01-30T02:49:15;11.85;;;6.38;;
72437;SDS011;60444;43.534;-5.674;2023-01-30T02:51:48;15.30;;;6.40;;
72437;SDS011;60444;43.534;-5.674;2023-01-30T02:54:18;10.02;;;4.82;;
72437;SDS011;60444;43.534;-5.674;2023-01-30T02:56:44;9.70;;;4.93;;
72437;SDS011;60444;43.534;-5.674;2023-01-30T02:59:18;12.15;;;5.93;;
72437;SDS011;60444;43.534;-5.674;2023-01-30T03:04:25;13.23;;;6.00;;
72437;SDS011;60444;43.534;-5.674;2023-01-30T03:14:58;11.45;;;5.63;;
72437;SDS011;60444;43.534;-5.674;2023-01-30T03:17:28;14.50;;;7.38;;
72437;SDS011;60444;43.534;-5.674;2023-01-30T03:19:56;12.60;;;6.25;;
72437;SDS011;60444;43.534;-5.674;2023-01-30T03:22:22;14.30;;;7.17;;
72437;SDS011;60444;43.534;-5.674;2023-01-30T03:24:48;13.57;;;6.28;;
72437;SDS011;60444;43.534;-5.674;2023-01-30T03:27:17;15.48;;;7.13;;
72437;SDS011;60444;43.534;-5.674;2023-01-30T03:29:44;14.03;;;7.07;;
72437;SDS011;60444;43.534;-5.674;2023-01-30T03:32:11;15.50;;;7.05;;
72437;SDS011;60444;43.534;-5.674;2023-01-30T03:34:36;12.43;;;5.97;;
72437;SDS011;60444;43.534;-5.674;2023-01-30T03:37:02;13.38;;;6.28;;
72437;SDS011;60444;43.534;-5.674;2023-01-30T03:39:28;12.82;;;6.57;;
72437;SDS011;60444;43.534;-5.674;2023-01-30T03:41:54;13.40;;;6.67;;
72437;SDS011;60444;43.534;-5.674;2023-01-30T03:44:20;14.10;;;7.80;;
72437;SDS011;60444;43.534;-5.674;2023-01-30T03:46:45;13.73;;;6.53;;
72437;SDS011;60444;43.534;-5.674;2023-01-30T03:49:11;17.80;;;8.63;;
72437;SDS011;60444;43.534;-5.674;2023-01-30T03:51:36;14.63;;;8.10;;
72437;SDS011;60444;43.534;-5.674;2023-01-30T03:54:02;14.32;;;7.05;;
72437;SDS011;60444;43.534;-5.674;2023-01-30T03:56:28;14.20;;;7.97;;
72437;SDS011;60444;43.534;-5.674;2023-01-30T03:58:55;16.33;;;8.10;;
72437;SDS011;60444;43.534;-5.674;2023-01-30T04:01:20;14.20;;;7.10;;
72437;SDS011;60444;43.534;-5.674;2023-01-30T04:03:46;14.50;;;8.35;;
72437;SDS011;60444;43.534;-5.674;2023-01-30T04:06:11;16.27;;;7.60;;
72437;SDS011;60444;43.534;-5.674;2023-01-30T04:08:37;11.43;;;5.53;;
72437;SDS011;60444;43.534;-5.674;2023-01-30T04:11:03;11.87;;;6.07;;
72437;SDS011;60444;43.534;-5.674;2023-01-30T04:13:28;12.75;;;5.90;;
72437;SDS011;60444;43.534;-5.674;2023-01-30T04:16:12;11.10;;;5.20;;
72437;SDS011;60444;43.534;-5.674;2023-01-30T04:18:40;11.95;;;5.75;;
72437;SDS011;60444;43.534;-5.674;2023-01-30T04:21:05;14.37;;;6.60;;
72437;SDS011;60444;43.534;-5.674;2023-01-30T04:23:31;15.77;;;7.03;;
72437;SDS011;60444;43.534;-5.674;2023-01-30T04:25:57;12.23;;;5.72;;
72437;SDS011;60444;43.534;-5.674;2023-01-30T04:28:22;13.77;;;6.33;;
72437;SDS011;60444;43.534;-5.674;2023-01-30T04:30:48;13.52;;;5.72;;
72437;SDS011;60444;43.534;-5.674;2023-01-30T04:33:13;17.13;;;5.60;;
72437;SDS011;60444;43.534;-5.674;2023-01-30T04:35:39;11.10;;;4.60;;
72437;SDS011;60444;43.534;-5.674;2023-01-30T04:38:04;11.40;;;5.03;;
72437;SDS011;60444;43.534;-5.674;2023-01-30T04:40:30;14.50;;;5.93;;
72437;SDS011;60444;43.534;-5.674;2023-01-30T04:42:56;13.27;;;5.93;;
72437;SDS011;60444;43.534;-5.674;2023-01-30T04:45:22;10.90;;;5.07;;
72437;SDS011;60444;43.534;-5.674;2023-01-30T04:47:47;9.30;;;4.37;;
72437;SDS011;60444;43.534;-5.674;2023-01-30T04:50:13;11.90;;;4.82;;
72437;SDS011;60444;43.534;-5.674;2023-01-30T04:52:38;9.60;;;4.33;;
72437;SDS011;60444;43.534;-5.674;2023-01-30T04:55:04;9.20;;;4.00;;
72437;SDS011;60444;43.534;-5.674;2023-01-30T04:57:29;11.00;;;4.63;;
72437;SDS011;60444;43.534;-5.674;2023-01-30T04:59:55;10.20;;;4.03;;
72437;SDS011;60444;43.534;-5.674;2023-01-30T05:02:20;10.60;;;4.60;;
72437;SDS011;60444;43.534;-5.674;2023-01-30T05:04:48;11.40;;;4.85;;
72437;SDS011;60444;43.534;-5.674;2023-01-30T05:07:14;10.00;;;4.60;;
72437;SDS011;60444;43.534;-5.674;2023-01-30T05:09:40;11.57;;;4.70;;
72437;SDS011;60444;43.534;-5.674;2023-01-30T05:12:05;10.17;;;4.30;;
72437;SDS011;60444;43.534;-5.674;2023-01-30T05:14:31;12.33;;;5.67;;
72437;SDS011;60444;43.534;-5.674;2023-01-30T05:16:56;9.97;;;4.07;;
72437;SDS011;60444;43.534;-5.674;2023-01-30T05:19:22;10.57;;;5.00;;
72437;SDS011;60444;43.534;-5.674;2023-01-30T05:21:47;12.37;;;4.33;;
72437;SDS011;60444;43.534;-5.674;2023-01-30T05:24:13;13.68;;;5.07;;
72437;SDS011;60444;43.534;-5.674;2023-01-30T05:26:38;11.33;;;5.60;;
72437;SDS011;60444;43.534;-5.674;2023-01-30T05:29:04;8.93;;;3.87;;
72437;SDS011;60444;43.534;-5.674;2023-01-30T05:31:29;11.18;;;5.18;;
72437;SDS011;60444;43.534;-5.674;2023-01-30T05:33:55;9.43;;;4.13;;
72437;SDS011;60444;43.534;-5.674;2023-01-30T05:36:21;10.17;;;3.67;;
72437;SDS011;60444;43.534;-5.674;2023-01-30T05:38:50;13.10;;;4.25;;
72437;SDS011;60444;43.534;-5.674;2023-01-30T05:41:16;11.90;;;5.30;;
72437;SDS011;60444;43.534;-5.674;2023-01-30T05:43:42;10.48;;;4.40;;
72437;SDS011;60444;43.534;-5.674;2023-01-30T05:46:09;9.25;;;4.22;;
72437;SDS011;60444;43.534;-5.674;2023-01-30T05:48:36;10.33;;;3.97;;
72437;SDS011;60444;43.534;-5.674;2023-01-30T05:51:01;10.30;;;3.90;;
72437;SDS011;60444;43.534;-5.674;2023-01-30T05:53:27;9.70;;;3.90;;
72437;SDS011;60444;43.534;-5.674;2023-01-30T05:58:22;8.85;;;3.97;;
72437;SDS011;60444;43.534;-5.674;2023-01-30T06:00:47;9.87;;;4.33;;
72437;SDS011;60444;43.534;-5.674;2023-01-30T06:03:13;10.43;;;4.00;;
72437;SDS011;60444;43.534;-5.674;2023-01-30T06:05:38;8.63;;;3.53;;
72437;SDS011;60444;43.534;-5.674;2023-01-30T06:08:03;9.27;;;4.13;;
72437;SDS011;60444;43.534;-5.674;2023-01-30T06:10:29;8.80;;;3.63;;
72437;SDS011;60444;43.534;-5.674;2023-01-30T06:12:54;12.70;;;4.90;;
72437;SDS011;60444;43.534;-5.674;2023-01-30T06:15:20;9.43;;;3.70;;
72437;SDS011;60444;43.534;-5.674;2023-01-30T06:17:45;10.80;;;4.07;;
72437;SDS011;60444;43.534;-5.674;2023-01-30T06:20:11;11.13;;;4.60;;
72437;SDS011;60444;43.534;-5.674;2023-01-30T06:22:37;9.88;;;3.80;;
72437;SDS011;60444;43.534;-5.674;2023-01-30T06:25:03;10.57;;;4.70;;
72437;SDS011;60444;43.534;-5.674;2023-01-30T06:27:29;9.10;;;3.90;;
72437;SDS011;60444;43.534;-5.674;2023-01-30T06:29:55;8.50;;;3.50;;
72437;SDS011;60444;43.534;-5.674;2023-01-30T06:32:20;10.57;;;4.40;;
72437;SDS011;60444;43.534;-5.674;2023-01-30T06:34:46;9.33;;;4.10;;
72437;SDS011;60444;43.534;-5.674;2023-01-30T06:37:11;10.60;;;4.47;;
72437;SDS011;60444;43.534;-5.674;2023-01-30T06:39:37;7.35;;;3.83;;
72437;SDS011;60444;43.534;-5.674;2023-01-30T06:42:02;11.03;;;4.13;;
72437;SDS011;60444;43.534;-5.674;2023-01-30T06:44:31;8.57;;;4.03;;
72437;SDS011;60444;43.534;-5.674;2023-01-30T06:46:56;11.63;;;5.03;;
72437;SDS011;60444;43.534;-5.674;2023-01-30T06:49:22;13.40;;;5.20;;
72437;SDS011;60444;43.534;-5.674;2023-01-30T06:51:47;12.48;;;5.00;;
72437;SDS011;60444;43.534;-5.674;2023-01-30T06:54:13;10.93;;;5.07;;
72437;SDS011;60444;43.534;-5.674;2023-01-30T06:56:38;11.30;;;3.83;;
72437;SDS011;60444;43.534;-5.674;2023-01-30T06:59:04;10.53;;;4.30;;
72437;SDS011;60444;43.534;-5.674;2023-01-30T07:01:29;9.95;;;4.05;;
72437;SDS011;60444;43.534;-5.674;2023-01-30T07:03:55;10.40;;;4.40;;
72437;SDS011;60444;43.534;-5.674;2023-01-30T07:06:20;11.90;;;4.80;;
72437;SDS011;60444;43.534;-5.674;2023-01-30T07:08:46;11.52;;;5.65;;
72437;SDS011;60444;43.534;-5.674;2023-01-30T07:11:11;11.57;;;4.57;;
72437;SDS011;60444;43.534;-5.674;2023-01-30T07:13:37;10.13;;;4.10;;
72437;SDS011;60444;43.534;-5.674;2023-01-30T07:16:02;10.30;;;4.00;;
72437;SDS011;60444;43.534;-5.674;2023-01-30T07:18:28;15.20;;;5.10;;
72437;SDS011;60444;43.534;-5.674;2023-01-30T07:20:53;8.37;;;4.07;;
72437;SDS011;60444;43.534;-5.674;2023-01-30T07:23:19;9.82;;;4.80;;
72437;SDS011;60444;43.534;-5.674;2023-01-30T07:25:44;12.90;;;5.20;;
72437;SDS011;60444;43.534;-5.674;2023-01-30T07:28:10;11.83;;;5.50;;
72437;SDS011;60444;43.534;-5.674;2023-01-30T07:30:35;36.57;;;6.73;;
72437;SDS011;60444;43.534;-5.674;2023-01-30T07:33:02;14.00;;;4.80;;
72437;SDS011;60444;43.534;-5.674;2023-01-30T07:35:29;10.27;;;5.07;;
72437;SDS011;60444;43.534;-5.674;2023-01-30T07:37:56;11.40;;;5.30;;
72437;SDS011;60444;43.534;-5.674;2023-01-30T07:40:22;13.93;;;5.63;;
72437;SDS011;60444;43.534;-5.674;2023-01-30T07:42:58;12.70;;;5.40;;
72437;SDS011;60444;43.534;-5.674;2023-01-30T07:45:47;11.67;;;3.73;;
72437;SDS011;60444;43.534;-5.674;2023-01-30T07:48:17;11.50;;;4.70;;
72437;SDS011;60444;43.534;-5.674;2023-01-30T07:50:43;11.57;;;5.43;;
72437;SDS011;60444;43.534;-5.674;2023-01-30T07:53:10;11.80;;;4.20;;
72437;SDS011;60444;43.534;-5.674;2023-01-30T07:55:38;14.93;;;6.50;;
72437;SDS011;60444;43.534;-5.674;2023-01-30T07:58:04;12.77;;;4.77;;
72437;SDS011;60444;43.534;-5.674;2023-01-30T08:00:30;11.75;;;5.00;;
72437;SDS011;60444;43.534;-5.674;2023-01-30T08:02:56;10.40;;;4.00;;
72437;SDS011;60444;43.534;-5.674;2023-01-30T08:05:21;11.47;;;4.77;;
72437;SDS011;60444;43.534;-5.674;2023-01-30T08:07:47;11.37;;;5.10;;
72437;SDS011;60444;43.534;-5.674;2023-01-30T08:10:12;14.95;;;5.07;;
72437;SDS011;60444;43.534;-5.674;2023-01-30T08:12:39;13.10;;;5.23;;
72437;SDS011;60444;43.534;-5.674;2023-01-30T08:15:05;10.02;;;4.32;;
72437;SDS011;60444;43.534;-5.674;2023-01-30T08:17:32;12.35;;;5.82;;
72437;SDS011;60444;43.534;-5.674;2023-01-30T08:19:58;12.43;;;5.32;;
72437;SDS011;60444;43.534;-5.674;2023-01-30T08:22:23;14.20;;;4.67;;
72437;SDS011;60444;43.534;-5.674;2023-01-30T08:24:49;9.07;;;4.17;;
72437;SDS011;60444;43.534;-5.674;2023-01-30T08:27:14;8.90;;;3.55;;
72437;SDS011;60444;43.534;-5.674;2023-01-30T08:29:40;13.80;;;5.07;;
72437;SDS011;60444;43.534;-5.674;2023-01-30T08:32:05;11.57;;;4.57;;
72437;SDS011;60444;43.534;-5.674;2023-01-30T08:34:31;14.35;;;4.88;;
72437;SDS011;60444;43.534;-5.674;2023-01-30T08:36:57;12.03;;;4.60;;
72437;SDS011;60444;43.534;-5.674;2023-01-30T08:39:22;10.90;;;4.57;;
72437;SDS011;60444;43.534;-5.674;2023-01-30T08:41:48;10.53;;;4.40;;
72437;SDS011;60444;43.534;-5.674;2023-01-30T08:44:13;11.87;;;5.10;;
72437;SDS011;60444;43.534;-5.674;2023-01-30T08:46:39;14.70;;;5.40;;
72437;SDS011;60444;43.534;-5.674;2023-01-30T08:49:04;11.37;;;4.67;;
72437;SDS011;60444;43.534;-5.674;2023-01-30T08:51:30;12.23;;;4.37;;
72437;SDS011;60444;43.534;-5.674;2023-01-30T08:53:56;16.30;;;6.25;;
72437;SDS011;60444;43.534;-5.674;2023-01-30T08:56:24;9.75;;;4.43;;
72437;SDS011;60444;43.534;-5.674;2023-01-30T08:58:50;11.57;;;4.53;;
72437;SDS011;60444;43.534;-5.674;2023-01-30T09:01:15;11.67;;;4.57;;
72437;SDS011;60444;43.534;-5.674;2023-01-30T09:03:41;10.98;;;4.03;;
72437;SDS011;60444;43.534;-5.674;2023-01-30T09:06:07;9.83;;;4.03;;
72437;SDS011;60444;43.534;-5.674;2023-01-30T09:08:33;10.27;;;4.13;;
72437;SDS011;60444;43.534;-5.674;2023-01-30T09:10:59;11.15;;;3.72;;
72437;SDS011;60444;43.534;-5.674;2023-01-30T09:13:26;11.10;;;4.78;;
72437;SDS011;60444;43.534;-5.674;2023-01-30T09:15:52;9.07;;;4.00;;
72437;SDS011;60444;43.534;-5.674;2023-01-30T09:18:17;8.35;;;3.88;;
72437;SDS011;60444;43.534;-5.674;2023-01-30T09:20:43;9.23;;;3.73;;
72437;SDS011;60444;43.534;-5.674;2023-01-30T09:23:08;9.00;;;3.47;;
72437;SDS011;60444;43.534;-5.674;2023-01-30T09:25:34;10.82;;;3.40;;
72437;SDS011;60444;43.534;-5.674;2023-01-30T09:27:59;14.83;;;4.77;;
72437;SDS011;60444;43.534;-5.674;2023-01-30T09:30:25;12.00;;;3.53;;
72437;SDS011;60444;43.534;-5.674;2023-01-30T09:32:53;9.82;;;3.35;;
72437;SDS011;60444;43.534;-5.674;2023-01-30T09:35:18;8.17;;;3.10;;
72437;SDS011;60444;43.534;-5.674;2023-01-30T09:37:47;10.90;;;3.38;;
72437;SDS011;60444;43.534;-5.674;2023-01-30T09:40:19;9.63;;;3.80;;
72437;SDS011;60444;43.534;-5.674;2023-01-30T09:42:58;7.83;;;3.17;;
72437;SDS011;60444;43.534;-5.674;2023-01-30T09:45:44;7.93;;;2.60;;
72437;SDS011;60444;43.534;-5.674;2023-01-30T09:56:55;8.33;;;3.00;;
72437;SDS011;60444;43.534;-5.674;2023-01-30T10:05:24;8.00;;;2.60;;
72437;SDS011;60444;43.534;-5.674;2023-01-30T10:20:15;6.75;;;2.60;;
72437;SDS011;60444;43.534;-5.674;2023-01-30T10:25:51;8.30;;;3.60;;
72437;SDS011;60444;43.534;-5.674;2023-01-30T10:28:28;8.50;;;3.08;;
72437;SDS011;60444;43.534;-5.674;2023-01-30T10:30:55;10.13;;;2.90;;
72437;SDS011;60444;43.534;-5.674;2023-01-30T10:33:32;7.55;;;2.70;;
72437;SDS011;60444;43.534;-5.674;2023-01-30T10:38:53;8.10;;;2.70;;
72437;SDS011;60444;43.534;-5.674;2023-01-30T10:41:25;7.57;;;2.70;;
72437;SDS011;60444;43.534;-5.674;2023-01-30T10:44:12;7.00;;;2.83;;
72437;SDS011;60444;43.534;-5.674;2023-01-30T10:47:01;7.18;;;2.53;;
72437;SDS011;60444;43.534;-5.674;2023-01-30T10:49:52;7.03;;;2.58;;
72437;SDS011;60444;43.534;-5.674;2023-01-30T10:55:14;6.65;;;2.83;;
72437;SDS011;60444;43.534;-5.674;2023-01-30T11:03:45;7.65;;;2.50;;
72437;SDS011;60444;43.534;-5.674;2023-01-30T11:06:15;8.57;;;3.07;;
72437;SDS011;60444;43.534;-5.674;2023-01-30T11:08:44;7.80;;;2.90;;
72437;SDS011;60444;43.534;-5.674;2023-01-30T11:11:23;6.57;;;2.63;;
72437;SDS011;60444;43.534;-5.674;2023-01-30T11:14:00;7.45;;;3.50;;
72437;SDS011;60444;43.534;-5.674;2023-01-30T11:16:29;9.35;;;3.17;;
72437;SDS011;60444;43.534;-5.674;2023-01-30T11:18:55;8.17;;;2.70;;
72437;SDS011;60444;43.534;-5.674;2023-01-30T11:21:29;8.57;;;3.38;;
72437;SDS011;60444;43.534;-5.674;2023-01-30T11:23:56;11.82;;;4.38;;
72437;SDS011;60444;43.534;-5.674;2023-01-30T11:26:32;7.88;;;3.22;;
72437;SDS011;60444;43.534;-5.674;2023-01-30T11:28:59;7.00;;;2.80;;
72437;SDS011;60444;43.534;-5.674;2023-01-30T11:31:40;8.60;;;2.73;;
72437;SDS011;60444;43.534;-5.674;2023-01-30T11:34:13;8.38;;;3.17;;
72437;SDS011;60444;43.534;-5.674;2023-01-30T11:36:40;8.55;;;3.22;;
72437;SDS011;60444;43.534;-5.674;2023-01-30T11:41:42;7.50;;;2.42;;
72437;SDS011;60444;43.534;-5.674;2023-01-30T11:44:39;7.90;;;2.80;;
72437;SDS011;60444;43.534;-5.674;2023-01-30T11:47:07;7.47;;;2.60;;
72437;SDS011;60444;43.534;-5.674;2023-01-30T11:49:40;7.07;;;2.45;;
72437;SDS011;60444;43.534;-5.674;2023-01-30T11:52:10;5.70;;;2.10;;
72437;SDS011;60444;43.534;-5.674;2023-01-30T11:54:37;7.55;;;2.80;;
72437;SDS011;60444;43.534;-5.674;2023-01-30T11:57:09;7.45;;;2.95;;
72437;SDS011;60444;43.534;-5.674;2023-01-30T11:59:44;7.70;;;2.65;;
72437;SDS011;60444;43.534;-5.674;2023-01-30T12:02:25;7.07;;;2.40;;
72437;SDS011;60444;43.534;-5.674;2023-01-30T12:05:01;5.90;;;2.13;;
72437;SDS011;60444;43.534;-5.674;2023-01-30T12:07:29;8.00;;;3.15;;
72437;SDS011;60444;43.534;-5.674;2023-01-30T12:09:58;7.75;;;2.67;;
72437;SDS011;60444;43.534;-5.674;2023-01-30T12:14:49;7.20;;;2.80;;
72437;SDS011;60444;43.534;-5.674;2023-01-30T12:17:22;8.50;;;3.08;;
72437;SDS011;60444;43.534;-5.674;2023-01-30T12:20:01;8.17;;;3.27;;
72437;SDS011;60444;43.534;-5.674;2023-01-30T12:25:28;8.75;;;3.50;;
72437;SDS011;60444;43.534;-5.674;2023-01-30T12:31:21;10.85;;;3.35;;
72437;SDS011;60444;43.534;-5.674;2023-01-30T12:33:51;8.87;;;3.00;;
72437;SDS011;60444;43.534;-5.674;2023-01-30T12:36:22;6.70;;;2.92;;
72437;SDS011;60444;43.534;-5.674;2023-01-30T12:38:56;7.53;;;2.92;;
72437;SDS011;60444;43.534;-5.674;2023-01-30T12:41:42;7.93;;;2.33;;
72437;SDS011;60444;43.534;-5.674;2023-01-30T12:47:05;6.40;;;2.63;;
72437;SDS011;60444;43.534;-5.674;2023-01-30T12:49:39;9.20;;;2.38;;
72437;SDS011;60444;43.534;-5.674;2023-01-30T12:58:31;6.53;;;2.58;;
72437;SDS011;60444;43.534;-5.674;2023-01-30T13:01:17;9.33;;;3.33;;
72437;SDS011;60444;43.534;-5.674;2023-01-30T13:09:37;7.22;;;3.28;;
72437;SDS011;60444;43.534;-5.674;2023-01-30T13:12:15;8.23;;;3.22;;
72437;SDS011;60444;43.534;-5.674;2023-01-30T13:28:52;11.52;;;4.00;;
72437;SDS011;60444;43.534;-5.674;2023-01-30T13:31:27;10.90;;;3.88;;
72437;SDS011;60444;43.534;-5.674;2023-01-30T13:34:05;14.33;;;3.90;;
72437;SDS011;60444;43.534;-5.674;2023-01-30T13:42:06;9.38;;;2.65;;
72437;SDS011;60444;43.534;-5.674;2023-01-30T13:44:37;6.63;;;2.53;;
72437;SDS011;60444;43.534;-5.674;2023-01-30T13:47:10;8.33;;;2.53;;
72437;SDS011;60444;43.534;-5.674;2023-01-30T13:50:05;6.45;;;1.95;;
72437;SDS011;60444;43.534;-5.674;2023-01-30T13:52:46;7.97;;;2.35;;
72437;SDS011;60444;43.534;-5.674;2023-01-30T14:00:38;8.57;;;2.80;;
72437;SDS011;60444;43.534;-5.674;2023-01-30T14:08:20;8.70;;;2.92;;
72437;SDS011;60444;43.534;-5.674;2023-01-30T14:10:49;6.00;;;1.83;;
72437;SDS011;60444;43.534;-5.674;2023-01-30T14:13:16;6.60;;;2.20;;
72437;SDS011;60444;43.534;-5.674;2023-01-30T14:15:55;7.43;;;2.42;;
72437;SDS011;60444;43.534;-5.674;2023-01-30T14:18:24;4.70;;;1.63;;
72437;SDS011;60444;43.534;-5.674;2023-01-30T14:20:51;7.28;;;1.73;;
72437;SDS011;60444;43.534;-5.674;2023-01-30T14:23:30;6.53;;;2.45;;
72437;SDS011;60444;43.534;-5.674;2023-01-30T14:25:58;5.47;;;1.77;;
72437;SDS011;60444;43.534;-5.674;2023-01-30T14:38:25;8.15;;;2.00;;
72437;SDS011;60444;43.534;-5.674;2023-01-30T14:45:53;8.07;;;1.70;;
72437;SDS011;60444;43.534;-5.674;2023-01-30T15:31:18;9.23;;;1.90;;
72437;SDS011;60444;43.534;-5.674;2023-01-30T15:33:47;7.45;;;1.83;;
72437;SDS011;60444;43.534;-5.674;2023-01-30T15:38:59;5.15;;;1.60;;
72437;SDS011;60444;43.534;-5.674;2023-01-30T15:41:45;5.85;;;1.55;;
72437;SDS011;60444;43.534;-5.674;2023-01-30T15:52:24;6.03;;;1.65;;
72437;SDS011;60444;43.534;-5.674;2023-01-30T15:54:58;5.45;;;1.60;;
72437;SDS011;60444;43.534;-5.674;2023-01-30T15:57:27;5.80;;;2.03;;
72437;SDS011;60444;43.534;-5.674;2023-01-30T15:59:57;5.00;;;1.60;;
72437;SDS011;60444;43.534;-5.674;2023-01-30T16:02:33;6.20;;;1.63;;
72437;SDS011;60444;43.534;-5.674;2023-01-30T16:07:28;7.10;;;1.77;;
72437;SDS011;60444;43.534;-5.674;2023-01-30T16:09:54;6.80;;;1.77;;
72437;SDS011;60444;43.534;-5.674;2023-01-30T16:12:24;8.65;;;1.67;;
72437;SDS011;60444;43.534;-5.674;2023-01-30T16:14:51;7.63;;;2.30;;
72437;SDS011;60444;43.534;-5.674;2023-01-30T16:17:23;5.80;;;1.87;;
72437;SDS011;60444;43.534;-5.674;2023-01-30T16:19:51;6.85;;;2.00;;
72437;SDS011;60444;43.534;-5.674;2023-01-30T16:22:18;5.50;;;1.52;;
72437;SDS011;60444;43.534;-5.674;2023-01-30T16:24:51;7.40;;;1.50;;
72437;SDS011;60444;43.534;-5.674;2023-01-30T16:29:54;7.00;;;2.07;;
72437;SDS011;60444;43.534;-5.674;2023-01-30T16:32:27;10.18;;;1.92;;
72437;SDS011;60444;43.534;-5.674;2023-01-30T16:37:53;5.30;;;1.73;;
72437;SDS011;60444;43.534;-5.674;2023-01-30T16:40:22;6.45;;;2.22;;
72437;SDS011;60444;43.534;-5.674;2023-01-30T16:42:55;5.83;;;1.70;;
72437;SDS011;60444;43.534;-5.674;2023-01-30T16:47:51;5.33;;;2.07;;
72437;SDS011;60444;43.534;-5.674;2023-01-30T16:50:17;6.90;;;2.45;;
72437;SDS011;60444;43.534;-5.674;2023-01-30T16:52:54;6.50;;;1.90;;
72437;SDS011;60444;43.534;-5.674;2023-01-30T16:55:23;6.80;;;2.08;;
72437;SDS011;60444;43.534;-5.674;2023-01-30T17:00:24;7.10;;;2.00;;
72437;SDS011;60444;43.534;-5.674;2023-01-30T17:02:53;4.95;;;1.73;;
72437;SDS011;60444;43.534;-5.674;2023-01-30T17:05:25;5.38;;;1.95;;
72437;SDS011;60444;43.534;-5.674;2023-01-30T17:07:52;5.85;;;1.98;;
72437;SDS011;60444;43.534;-5.674;2023-01-30T17:13:04;5.10;;;1.73;;
72437;SDS011;60444;43.534;-5.674;2023-01-30T17:18:52;6.22;;;1.80;;
72437;SDS011;60444;43.534;-5.674;2023-01-30T17:21:20;5.82;;;2.20;;
72437;SDS011;60444;43.534;-5.674;2023-01-30T17:23:52;6.47;;;1.97;;
72437;SDS011;60444;43.534;-5.674;2023-01-30T17:26:21;8.32;;;1.85;;
72437;SDS011;60444;43.534;-5.674;2023-01-30T17:28:47;6.95;;;2.25;;
72437;SDS011;60444;43.534;-5.674;2023-01-30T17:31:14;6.20;;;2.00;;
72437;SDS011;60444;43.534;-5.674;2023-01-30T17:33:42;7.35;;;3.30;;
72437;SDS011;60444;43.534;-5.674;2023-01-30T17:36:26;8.07;;;2.15;;
72437;SDS011;60444;43.534;-5.674;2023-01-30T17:38:54;7.30;;;2.70;;
72437;SDS011;60444;43.534;-5.674;2023-01-30T17:41:22;7.57;;;2.07;;
72437;SDS011;60444;43.534;-5.674;2023-01-30T17:43:50;6.18;;;2.42;;
72437;SDS011;60444;43.534;-5.674;2023-01-30T17:46:15;5.47;;;1.90;;
72437;SDS011;60444;43.534;-5.674;2023-01-30T17:48:41;7.30;;;1.92;;
72437;SDS011;60444;43.534;-5.674;2023-01-30T17:51:07;7.75;;;2.22;;
72437;SDS011;60444;43.534;-5.674;2023-01-30T17:53:32;7.83;;;2.70;;
72437;SDS011;60444;43.534;-5.674;2023-01-30T17:55:58;6.37;;;2.30;;
72437;SDS011;60444;43.534;-5.674;2023-01-30T17:58:24;7.47;;;2.60;;
72437;SDS011;60444;43.534;-5.674;2023-01-30T18:00:50;6.55;;;2.53;;
72437;SDS011;60444;43.534;-5.674;2023-01-30T18:03:17;6.20;;;2.30;;
72437;SDS011;60444;43.534;-5.674;2023-01-30T18:05:42;6.15;;;2.10;;
72437;SDS011;60444;43.534;-5.674;2023-01-30T18:08:08;7.25;;;2.75;;
72437;SDS011;60444;43.534;-5.674;2023-01-30T18:10:34;7.63;;;3.53;;
72437;SDS011;60444;43.534;-5.674;2023-01-30T18:13:00;6.93;;;2.97;;
72437;SDS011;60444;43.534;-5.674;2023-01-30T18:15:25;8.30;;;3.00;;
72437;SDS011;60444;43.534;-5.674;2023-01-30T18:17:51;8.90;;;2.93;;